Time;durP1;ratioP1;P1;durP2;ratioP2;P2;SDS_P1;SDS_P2;PMS_P1;PMS_P2;Temp;Humidity;BMP_temperature;BMP_pressure;BME280_temperature;BME280_humidity;BME280_pressure;Samples;Min_cycle;Max_cycle;Signal;HPM_P1;HPM_P2
2021/03/07 00:00:52;;;;;;;14.18;1.85;;;4.10;99.90;;;;;;5001711;28;20039;-63
2021/03/07 00:03:18;;;;;;;4.43;0.77;;;3.80;99.90;;;;;;5001235;28;20148;-67
2021/03/07 00:05:45;;;;;;;2.90;0.50;;;3.00;99.90;;;;;;5000780;28;20053;-63
2021/03/07 00:08:11;;;;;;;2.05;0.47;;;2.70;99.90;;;;;;5003191;28;20054;-63
2021/03/07 00:10:38;;;;;;;14.88;1.63;;;2.50;99.90;;;;;;5001834;28;20073;-66
2021/03/07 00:13:04;;;;;;;6.50;1.75;;;2.30;99.90;;;;;;5001959;28;20541;-62
2021/03/07 00:15:31;;;;;;;3.22;0.50;;;2.20;99.90;;;;;;5003534;28;20497;-62
2021/03/07 00:17:57;;;;;;;1.23;0.17;;;2.10;99.90;;;;;;4999126;28;20115;-63
2021/03/07 00:20:24;;;;;;;4.70;0.73;;;2.10;99.90;;;;;;5000936;28;20462;-62
2021/03/07 00:22:51;;;;;;;2.22;0.40;;;2.10;99.90;;;;;;5006791;28;20580;-63
2021/03/07 00:25:18;;;;;;;0.95;0.22;;;2.10;99.90;;;;;;5002271;28;20057;-63
2021/03/07 00:27:45;;;;;;;4.57;0.50;;;2.10;99.90;;;;;;5001681;28;20894;-63
2021/03/07 00:30:15;;;;;;;4.55;0.65;;;2.20;99.90;;;;;;5000261;28;20077;-63
2021/03/07 00:32:42;;;;;;;4.90;0.40;;;2.20;99.90;;;;;;4996141;28;20078;-64
2021/03/07 00:35:09;;;;;;;1.65;0.38;;;2.20;99.90;;;;;;5001684;28;20038;-64
2021/03/07 00:37:36;;;;;;;1.38;0.80;;;2.20;99.90;;;;;;5003479;28;20083;-65
2021/03/07 00:40:05;;;;;;;1.95;0.38;;;2.20;99.90;;;;;;4999841;28;20076;-66
2021/03/07 00:42:32;;;;;;;2.78;0.60;;;2.10;99.90;;;;;;5002217;28;20104;-64
2021/03/07 00:44:58;;;;;;;3.70;0.40;;;2.10;99.90;;;;;;5002986;28;20057;-63
2021/03/07 00:47:25;;;;;;;2.25;0.50;;;2.10;99.90;;;;;;5001655;28;20046;-65
2021/03/07 00:49:52;;;;;;;5.78;0.50;;;2.10;99.90;;;;;;5000641;28;20078;-64
2021/03/07 00:52:18;;;;;;;0.70;0.30;;;2.10;99.90;;;;;;5001647;28;20050;-64
2021/03/07 00:54:45;;;;;;;5.93;1.30;;;2.00;99.90;;;;;;5002716;28;20061;-64
2021/03/07 00:57:11;;;;;;;2.53;0.30;;;1.90;99.90;;;;;;5004461;28;20540;-63
2021/03/07 00:59:38;;;;;;;1.05;0.65;;;1.80;99.90;;;;;;4998495;28;20062;-64
2021/03/07 01:02:04;;;;;;;2.42;0.47;;;1.90;99.90;;;;;;5001488;28;20069;-65
2021/03/07 01:04:31;;;;;;;1.52;0.32;;;1.70;99.90;;;;;;5003448;28;20133;-62
2021/03/07 01:06:57;;;;;;;2.10;0.77;;;1.70;99.90;;;;;;5001233;28;20123;-63
2021/03/07 01:09:23;;;;;;;6.63;1.20;;;1.70;99.90;;;;;;5001020;28;20053;-64
2021/03/07 01:12:05;;;;;;;2.42;0.85;;;1.50;99.90;;;;;;4995258;28;20414;-62
2021/03/07 01:14:32;;;;;;;;;;;1.30;99.90;;;;;;5000036;28;20464;-62
2021/03/07 01:16:58;;;;;;;3.03;0.73;;;1.20;99.90;;;;;;5000358;28;19929;-62
2021/03/07 01:19:38;;;;;;;1.98;1.52;;;1.10;99.90;;;;;;5001272;28;20048;-62
2021/03/07 01:22:05;;;;;;;2.28;0.50;;;1.20;99.90;;;;;;5000231;28;20112;-65
2021/03/07 01:24:31;;;;;;;2.25;0.40;;;1.20;99.90;;;;;;4995455;28;21078;-62
2021/03/07 01:26:57;;;;;;;2.15;0.22;;;1.50;99.90;;;;;;4988802;28;20062;-63
2021/03/07 01:29:24;;;;;;;1.00;0.30;;;1.70;99.90;;;;;;4995276;28;20498;-65
2021/03/07 01:31:51;;;;;;;1.77;1.13;;;1.80;99.90;;;;;;4998363;28;20053;-63
2021/03/07 01:34:17;;;;;;;0.77;0.32;;;2.00;99.90;;;;;;5001947;28;20045;-62
2021/03/07 01:36:44;;;;;;;3.22;0.35;;;2.10;99.90;;;;;;5001483;28;20069;-62
2021/03/07 01:39:11;;;;;;;1.08;0.40;;;2.20;99.90;;;;;;4997384;28;20054;-64
2021/03/07 01:41:37;;;;;;;0.70;0.40;;;2.30;99.90;;;;;;5000285;28;20050;-62
2021/03/07 01:44:04;;;;;;;2.70;0.70;;;2.30;99.90;;;;;;4999274;28;20046;-62
2021/03/07 01:46:30;;;;;;;2.05;0.70;;;2.40;99.90;;;;;;5001236;28;20049;-65
2021/03/07 01:48:57;;;;;;;2.42;0.65;;;2.50;99.90;;;;;;5000561;28;20112;-62
2021/03/07 01:51:24;;;;;;;0.80;0.40;;;2.50;99.90;;;;;;5002212;28;20030;-62
2021/03/07 01:53:51;;;;;;;2.20;0.52;;;2.50;99.90;;;;;;4995396;28;20112;-63
2021/03/07 01:56:19;;;;;;;1.90;0.70;;;2.50;99.90;;;;;;5002108;28;20038;-63
2021/03/07 01:58:49;;;;;;;2.10;0.60;;;2.50;99.90;;;;;;5002989;28;20045;-62
2021/03/07 02:01:15;;;;;;;2.40;1.08;;;2.50;99.90;;;;;;4998933;28;20143;-64
2021/03/07 02:03:52;;;;;;;1.23;0.85;;;2.50;99.90;;;;;;4998910;28;20053;-62
2021/03/07 02:06:22;;;;;;;1.75;0.40;;;2.50;99.90;;;;;;4999439;28;20105;-63
2021/03/07 02:08:49;;;;;;;7.05;0.82;;;2.50;99.90;;;;;;5003329;28;20568;-62
2021/03/07 02:11:16;;;;;;;1.33;0.68;;;2.50;99.90;;;;;;4999891;28;20200;-62
2021/03/07 02:13:44;;;;;;;3.42;0.68;;;2.50;99.90;;;;;;4998283;28;20056;-63
2021/03/07 02:16:16;;;;;;;2.33;0.63;;;2.50;99.90;;;;;;5002241;28;20054;-63
2021/03/07 02:18:46;;;;;;;0.93;0.55;;;2.50;99.90;;;;;;5001780;28;20141;-61
2021/03/07 02:21:18;;;;;;;2.50;0.63;;;2.40;99.90;;;;;;5000960;28;20054;-63
2021/03/07 02:23:50;;;;;;;3.83;0.50;;;2.40;99.90;;;;;;4998762;28;20107;-63
2021/03/07 02:26:18;;;;;;;3.60;0.80;;;2.30;99.90;;;;;;4999075;28;20065;-65
2021/03/07 02:28:44;;;;;;;2.00;0.17;;;2.30;99.90;;;;;;5002527;28;20068;-62
2021/03/07 02:31:13;;;;;;;1.13;0.93;;;2.30;99.90;;;;;;5003361;28;20473;-62
2021/03/07 02:33:42;;;;;;;4.85;0.63;;;2.20;99.90;;;;;;4999800;28;20131;-64
2021/03/07 02:36:14;;;;;;;3.60;0.65;;;2.20;99.90;;;;;;5000523;28;20501;-63
2021/03/07 02:38:43;;;;;;;0.43;0.28;;;2.20;99.90;;;;;;4997637;28;20042;-64
2021/03/07 02:41:14;;;;;;;6.80;0.53;;;2.20;99.90;;;;;;5000143;28;20053;-61
2021/03/07 02:43:41;;;;;;;;;;;2.20;99.90;;;;;;4996015;28;20053;-63
2021/03/07 02:46:18;;;;;;;3.63;0.47;;;2.20;99.90;;;;;;4998084;28;19925;-63
2021/03/07 02:48:48;;;;;;;3.10;0.93;;;2.20;99.90;;;;;;5001383;28;20054;-62
2021/03/07 02:51:15;;;;;;;2.17;0.50;;;2.20;99.90;;;;;;5001303;28;20070;-61
2021/03/07 02:53:41;;;;;;;1.63;0.77;;;2.20;99.90;;;;;;4996801;28;20123;-63
2021/03/07 02:56:14;;;;;;;1.13;0.57;;;2.10;99.90;;;;;;5005250;28;20058;-65
2021/03/07 02:58:42;;;;;;;4.60;0.60;;;2.10;99.90;;;;;;4996471;28;20041;-65
2021/03/07 03:01:16;;;;;;;4.47;0.85;;;2.10;99.90;;;;;;5001070;28;20052;-62
2021/03/07 03:03:46;;;;;;;6.13;2.95;;;2.10;99.90;;;;;;5004685;28;20056;-63
2021/03/07 03:06:16;;;;;;;2.90;0.52;;;2.10;99.90;;;;;;4999739;28;20489;-63
2021/03/07 03:08:46;;;;;;;1.65;0.50;;;2.10;99.90;;;;;;5004207;28;20130;-63
2021/03/07 03:11:14;;;;;;;3.70;0.82;;;2.10;99.90;;;;;;5001982;28;20072;-62
2021/03/07 03:13:40;;;;;;;5.43;0.50;;;2.10;99.90;;;;;;5001410;28;20108;-62
2021/03/07 03:16:08;;;;;;;2.63;1.10;;;2.10;99.90;;;;;;5002394;28;20082;-63
2021/03/07 03:18:37;;;;;;;1.98;0.40;;;2.10;99.90;;;;;;5004433;28;20132;-62
2021/03/07 03:21:09;;;;;;;3.08;0.52;;;2.10;99.90;;;;;;5002794;28;20111;-63
2021/03/07 03:23:37;;;;;;;1.55;0.30;;;2.10;99.90;;;;;;5000870;28;20074;-61
2021/03/07 03:26:03;;;;;;;2.60;0.47;;;2.10;99.90;;;;;;5000886;28;20678;-64
2021/03/07 03:28:31;;;;;;;4.93;1.10;;;2.00;99.90;;;;;;5002756;28;20053;-62
2021/03/07 03:30:57;;;;;;;2.88;0.63;;;2.00;99.90;;;;;;5003922;28;20144;-63
2021/03/07 03:33:25;;;;;;;3.60;0.55;;;2.00;99.90;;;;;;5001847;28;20108;-63
2021/03/07 03:35:53;;;;;;;4.00;0.43;;;2.00;99.90;;;;;;5003271;28;20049;-61
2021/03/07 03:38:25;;;;;;;2.10;0.63;;;2.00;99.90;;;;;;4998347;28;20072;-64
2021/03/07 03:40:56;;;;;;;0.75;0.35;;;2.00;99.90;;;;;;5003409;28;20057;-64
2021/03/07 03:43:23;;;;;;;2.42;1.05;;;2.00;99.90;;;;;;5001805;28;20056;-62
2021/03/07 03:45:57;;;;;;;1.70;1.08;;;2.00;99.90;;;;;;5001755;28;20056;-62
2021/03/07 03:48:28;;;;;;;4.13;0.40;;;2.00;99.90;;;;;;5002485;28;20065;-63
2021/03/07 03:50:58;;;;;;;2.65;0.95;;;1.90;99.90;;;;;;5005481;28;20050;-62
2021/03/07 03:53:25;;;;;;;3.75;0.30;;;2.00;99.90;;;;;;5001862;28;20062;-61
2021/03/07 03:55:53;;;;;;;0.98;0.35;;;2.00;99.90;;;;;;4999933;28;20579;-65
2021/03/07 03:58:24;;;;;;;3.78;0.50;;;2.00;99.90;;;;;;5004204;28;20108;-62
2021/03/07 04:00:53;;;;;;;3.30;0.50;;;2.00;99.90;;;;;;5002726;28;20088;-65
2021/03/07 04:03:20;;;;;;;3.08;0.65;;;2.00;99.90;;;;;;5002857;28;20477;-64
2021/03/07 04:05:48;;;;;;;1.50;0.20;;;2.00;99.90;;;;;;5001383;28;20865;-63
2021/03/07 04:08:17;;;;;;;1.80;0.60;;;1.90;99.90;;;;;;5001029;28;20085;-63
2021/03/07 04:10:45;;;;;;;3.10;0.88;;;2.00;99.90;;;;;;5005368;28;20049;-61
2021/03/07 04:13:18;;;;;;;1.20;0.20;;;1.90;99.90;;;;;;5002323;28;20057;-62
2021/03/07 04:15:45;;;;;;;2.40;0.50;;;2.00;99.90;;;;;;5002771;28;20139;-61
2021/03/07 04:18:16;;;;;;;2.40;0.40;;;1.90;99.90;;;;;;5007458;28;20137;-61
2021/03/07 04:20:44;;;;;;;4.25;0.47;;;1.90;99.90;;;;;;5003064;28;20050;-61
2021/03/07 04:23:12;;;;;;;3.83;0.43;;;1.90;99.90;;;;;;5003415;28;20054;-62
2021/03/07 04:25:38;;;;;;;1.70;0.55;;;1.90;99.90;;;;;;5000323;28;20104;-62
2021/03/07 04:28:07;;;;;;;1.15;1.05;;;1.90;99.90;;;;;;5002642;28;20053;-63
2021/03/07 04:30:34;;;;;;;0.80;0.40;;;1.90;99.90;;;;;;4999104;28;20046;-62
2021/03/07 04:33:02;;;;;;;3.35;0.43;;;1.90;99.90;;;;;;5000763;28;20100;-63
2021/03/07 04:35:31;;;;;;;0.93;0.57;;;1.90;99.90;;;;;;5003784;28;20045;-61
2021/03/07 04:38:02;;;;;;;1.83;0.50;;;1.90;99.90;;;;;;5000077;28;20576;-63
2021/03/07 04:40:28;;;;;;;3.20;0.30;;;1.80;99.90;;;;;;5001160;28;20119;-62
2021/03/07 04:42:56;;;;;;;1.52;0.40;;;1.80;99.90;;;;;;5001437;28;20041;-61
2021/03/07 04:45:23;;;;;;;0.65;0.25;;;1.80;99.90;;;;;;4999932;28;20058;-61
2021/03/07 04:47:50;;;;;;;1.90;0.60;;;1.80;99.90;;;;;;4999022;28;20073;-62
2021/03/07 04:50:17;;;;;;;2.13;0.77;;;1.80;99.90;;;;;;5002614;28;20073;-62
2021/03/07 04:52:44;;;;;;;2.80;0.80;;;1.80;99.90;;;;;;5002655;28;20073;-61
2021/03/07 04:55:11;;;;;;;3.03;0.40;;;1.80;99.90;;;;;;5002099;28;20046;-64
2021/03/07 04:57:38;;;;;;;0.85;0.43;;;1.80;99.90;;;;;;5000878;28;20127;-62
2021/03/07 05:00:07;;;;;;;2.45;0.40;;;1.70;99.90;;;;;;5001784;28;20046;-62
2021/03/07 05:02:33;;;;;;;6.28;0.63;;;1.70;99.90;;;;;;5001013;28;20053;-65
2021/03/07 05:05:00;;;;;;;1.05;0.70;;;1.70;99.90;;;;;;5000804;28;20749;-64
2021/03/07 05:07:27;;;;;;;1.40;0.20;;;1.70;99.90;;;;;;4999499;28;20120;-62
2021/03/07 05:09:53;;;;;;;4.25;0.52;;;1.70;99.90;;;;;;4996023;28;20056;-61
2021/03/07 05:12:20;;;;;;;3.53;0.73;;;1.70;99.90;;;;;;4998273;28;20053;-61
2021/03/07 05:15:06;;;;;;;0.20;0.20;;;1.70;99.90;;;;;;4996964;28;20053;-61
2021/03/07 05:17:32;;;;;;;1.25;0.52;;;1.70;98.00;;;;;;5001505;28;20115;-64
2021/03/07 05:20:00;;;;;;;1.75;0.35;;;1.70;99.90;;;;;;4999261;28;20064;-62
2021/03/07 05:22:27;;;;;;;3.67;0.30;;;1.70;99.90;;;;;;5002583;28;20061;-61
2021/03/07 05:24:54;;;;;;;1.15;0.40;;;1.70;99.90;;;;;;4999944;28;20042;-62
2021/03/07 05:27:21;;;;;;;6.80;0.57;;;1.80;99.90;;;;;;5000133;28;20077;-65
2021/03/07 05:29:47;;;;;;;4.22;0.65;;;1.80;99.90;;;;;;5002512;28;20046;-64
2021/03/07 05:32:13;;;;;;;2.42;0.98;;;1.70;99.90;;;;;;5000264;28;20064;-64
2021/03/07 05:34:41;;;;;;;1.70;0.75;;;1.80;99.90;;;;;;5000027;28;20046;-65
2021/03/07 05:37:07;;;;;;;5.28;1.42;;;1.70;99.90;;;;;;4987311;28;20050;-62
2021/03/07 05:39:33;;;;;;;1.83;0.40;;;1.80;99.90;;;;;;4980746;28;20095;-62
2021/03/07 05:42:01;;;;;;;6.28;0.57;;;1.70;99.90;;;;;;4999173;28;20054;-62
2021/03/07 05:44:28;;;;;;;0.75;0.43;;;1.80;99.90;;;;;;4997240;28;20108;-63
2021/03/07 05:46:55;;;;;;;3.40;1.73;;;1.70;99.90;;;;;;4996504;28;20522;-62
2021/03/07 05:49:22;;;;;;;5.80;1.45;;;1.70;99.90;;;;;;4998791;28;20052;-62
2021/03/07 05:51:49;;;;;;;4.32;0.88;;;1.70;99.90;;;;;;4999352;28;20076;-61
2021/03/07 05:54:16;;;;;;;3.25;0.60;;;1.70;99.90;;;;;;5001446;28;20046;-63
2021/03/07 05:56:48;;;;;;;2.50;1.08;;;1.80;99.90;;;;;;5002207;28;20077;-63
2021/03/07 05:59:17;;;;;;;0.80;0.50;;;1.70;99.90;;;;;;4998335;28;20101;-61
2021/03/07 06:01:43;;;;;;;4.47;0.45;;;1.80;99.90;;;;;;4995582;28;20129;-62
2021/03/07 06:04:10;;;;;;;3.97;1.10;;;1.70;99.90;;;;;;5002141;28;20324;-61
2021/03/07 06:06:36;;;;;;;3.25;0.35;;;1.70;99.90;;;;;;5001527;28;21505;-62
2021/03/07 06:09:23;;;;;;;3.47;0.40;;;1.70;99.90;;;;;;5000476;28;20054;-62
2021/03/07 06:11:51;;;;;;;4.78;0.80;;;1.70;99.90;;;;;;4998817;28;20108;-62
2021/03/07 06:14:29;;;;;;;3.15;0.30;;;1.70;99.90;;;;;;4999109;28;20112;-64
2021/03/07 06:17:07;;;;;;;4.22;0.75;;;1.70;99.90;;;;;;5000593;28;20073;-63
2021/03/07 06:20:02;;;;;;;5.35;0.40;;;1.70;99.90;;;;;;5001163;28;20049;-63
2021/03/07 06:22:30;;;;;;;4.10;0.55;;;1.70;99.90;;;;;;5000340;28;20042;-64
2021/03/07 06:24:58;;;;;;;1.58;1.15;;;1.70;99.90;;;;;;4999452;28;20131;-65
2021/03/07 06:27:27;;;;;;;0.55;0.20;;;1.70;99.90;;;;;;4997825;28;20112;-61
2021/03/07 06:30:15;;;;;;;10.73;0.70;;;1.70;99.90;;;;;;5002092;28;20412;-61
2021/03/07 06:32:52;;;;;;;2.60;0.47;;;1.70;99.90;;;;;;5010004;28;20168;-62
2021/03/07 06:35:30;;;;;;;2.47;0.43;;;1.70;99.90;;;;;;5004780;28;20140;-65
2021/03/07 06:38:02;;;;;;;1.88;0.50;;;1.60;99.90;;;;;;5003014;28;20131;-62
2021/03/07 06:40:32;;;;;;;6.63;0.55;;;1.60;99.90;;;;;;5002232;28;20046;-64
2021/03/07 06:43:01;;;;;;;4.00;0.57;;;1.70;99.90;;;;;;5002670;28;20494;-62
2021/03/07 06:45:42;;;;;;;3.47;1.63;;;1.70;99.90;;;;;;5004787;28;20042;-61
2021/03/07 06:48:09;;;;;;;2.67;0.45;;;1.70;99.90;;;;;;4983479;28;20061;-63
2021/03/07 06:50:51;;;;;;;3.72;0.60;;;1.70;99.90;;;;;;4992091;28;20062;-63
2021/03/07 06:53:32;;;;;;;1.35;0.52;;;1.80;99.90;;;;;;5018863;28;20046;-61
2021/03/07 06:55:58;;;;;;;1.45;0.50;;;1.70;99.90;;;;;;4998394;28;20056;-63
2021/03/07 06:58:25;;;;;;;3.10;0.52;;;1.70;99.90;;;;;;5006800;28;20156;-61
2021/03/07 07:00:52;;;;;;;1.90;1.05;;;1.80;99.90;;;;;;5003593;28;20486;-62
2021/03/07 07:03:18;;;;;;;3.53;0.75;;;1.80;99.90;;;;;;5004774;28;20046;-62
2021/03/07 07:05:47;;;;;;;1.50;0.45;;;1.80;99.90;;;;;;5004476;28;20062;-61
2021/03/07 07:08:19;;;;;;;1.75;0.50;;;1.80;99.90;;;;;;5003203;28;20049;-62
2021/03/07 07:10:51;;;;;;;2.20;1.63;;;1.80;99.90;;;;;;5000947;28;20867;-62
2021/03/07 07:13:21;;;;;;;1.20;0.38;;;1.80;99.90;;;;;;5001912;28;20072;-63
2021/03/07 07:15:58;;;;;;;2.03;0.28;;;1.80;99.90;;;;;;5001935;28;20053;-62
2021/03/07 07:18:25;;;;;;;2.47;0.77;;;1.80;99.90;;;;;;5007756;28;20045;-65
2021/03/07 07:20:53;;;;;;;3.45;0.55;;;1.80;99.90;;;;;;5002008;28;20053;-62
2021/03/07 07:23:21;;;;;;;0.25;0.20;;;1.80;99.90;;;;;;5006902;28;20046;-62
2021/03/07 07:25:48;;;;;;;3.22;0.55;;;1.80;99.90;;;;;;5001821;28;20081;-65
2021/03/07 07:28:15;;;;;;;3.95;0.32;;;1.90;99.90;;;;;;5002845;28;20261;-62
2021/03/07 07:30:50;;;;;;;6.97;0.75;;;1.90;99.90;;;;;;5006243;28;20046;-61
2021/03/07 07:33:25;;;;;;;8.88;1.40;;;1.90;99.90;;;;;;5003755;28;20401;-62
2021/03/07 07:35:53;;;;;;;0.60;0.40;;;1.90;99.90;;;;;;5000170;28;20490;-64
2021/03/07 07:38:21;;;;;;;2.40;0.30;;;1.90;99.90;;;;;;5004377;28;20041;-63
2021/03/07 07:40:48;;;;;;;1.38;0.30;;;2.00;99.90;;;;;;4994675;28;20126;-63
2021/03/07 07:43:14;;;;;;;1.23;0.20;;;2.00;99.90;;;;;;5003385;28;20126;-62
2021/03/07 07:45:41;;;;;;;2.35;0.70;;;2.00;99.90;;;;;;5000499;28;20050;-61
2021/03/07 07:48:08;;;;;;;4.45;0.90;;;2.00;99.90;;;;;;5000408;28;20060;-61
2021/03/07 07:50:37;;;;;;;2.97;0.43;;;2.00;99.90;;;;;;5004458;28;20453;-63
2021/03/07 07:53:06;;;;;;;3.75;0.60;;;2.00;99.90;;;;;;5003044;28;20472;-62
2021/03/07 07:55:50;;;;;;;0.88;0.30;;;2.00;99.90;;;;;;5001411;28;20472;-61
2021/03/07 07:58:39;;;;;;;1.20;0.40;;;1.90;99.90;;;;;;5005141;28;20068;-65
2021/03/07 08:01:14;;;;;;;1.77;0.70;;;2.00;99.90;;;;;;4999798;28;20123;-63
2021/03/07 08:03:43;;;;;;;3.72;0.57;;;2.00;99.90;;;;;;4996635;28;20530;-64
2021/03/07 08:06:13;;;;;;;4.63;1.00;;;2.00;99.90;;;;;;5001312;28;20054;-62
2021/03/07 08:08:42;;;;;;;5.88;0.40;;;2.00;99.90;;;;;;5001724;28;20464;-61
2021/03/07 08:11:27;;;;;;;3.65;0.73;;;2.00;99.90;;;;;;5002759;28;20113;-64
2021/03/07 08:14:00;;;;;;;3.35;0.75;;;2.10;99.90;;;;;;5000284;28;23269;-63
2021/03/07 08:16:44;;;;;;;1.15;0.57;;;2.10;99.90;;;;;;5001304;28;20050;-62
2021/03/07 08:19:16;;;;;;;1.50;0.60;;;2.10;99.90;;;;;;5002951;28;20100;-65
2021/03/07 08:22:03;;;;;;;2.15;0.40;;;2.10;99.90;;;;;;4999480;28;20061;-61
2021/03/07 08:24:58;;;;;;;5.60;0.85;;;2.10;99.90;;;;;;5002386;28;20054;-61
2021/03/07 08:27:35;;;;;;;1.35;0.50;;;2.10;99.90;;;;;;4997229;28;20050;-65
2021/03/07 08:30:23;;;;;;;6.13;0.50;;;2.10;99.90;;;;;;5001358;28;20065;-61
2021/03/07 08:32:51;;;;;;;0.65;0.45;;;2.20;99.90;;;;;;5002086;28;20208;-61
2021/03/07 08:35:24;;;;;;;3.67;0.32;;;2.10;99.90;;;;;;5003980;28;20073;-64
2021/03/07 08:38:08;;;;;;;3.15;0.73;;;2.10;99.90;;;;;;4999103;28;20077;-62
2021/03/07 08:40:35;;;;;;;2.85;0.40;;;2.10;99.90;;;;;;4997615;28;20453;-62
2021/03/07 08:43:20;;;;;;;3.88;0.88;;;2.20;99.90;;;;;;5001368;28;20049;-64
2021/03/07 08:46:08;;;;;;;3.83;0.57;;;2.20;99.90;;;;;;4998859;28;20057;-62
2021/03/07 08:48:37;;;;;;;3.60;1.30;;;2.20;99.90;;;;;;5000952;28;20074;-61
2021/03/07 08:51:05;;;;;;;5.53;0.57;;;2.20;99.90;;;;;;5003266;28;20045;-62
2021/03/07 08:53:34;;;;;;;4.32;0.80;;;2.20;99.90;;;;;;5000036;28;20306;-61
2021/03/07 08:56:02;;;;;;;0.98;0.60;;;2.10;99.90;;;;;;4998090;28;20064;-62
2021/03/07 08:58:28;;;;;;;4.35;0.32;;;2.10;99.90;;;;;;5003556;28;20046;-62
2021/03/07 09:00:56;;;;;;;2.55;0.70;;;2.20;99.90;;;;;;5000466;28;20454;-62
2021/03/07 09:03:26;;;;;;;7.57;1.10;;;2.20;99.90;;;;;;5002388;28;20410;-63
2021/03/07 09:05:53;;;;;;;11.57;1.48;;;2.10;99.90;;;;;;5001118;28;20111;-62
2021/03/07 09:08:25;;;;;;;7.55;1.83;;;2.20;99.90;;;;;;4999936;28;20099;-62
2021/03/07 09:10:59;;;;;;;3.08;0.38;;;2.10;99.90;;;;;;5003708;28;20605;-61
2021/03/07 09:13:29;;;;;;;2.72;0.30;;;2.10;99.90;;;;;;5004862;28;20138;-63
2021/03/07 09:15:59;;;;;;;5.47;0.60;;;2.10;99.90;;;;;;4998637;28;20122;-62
2021/03/07 09:18:29;;;;;;;0.63;0.28;;;2.10;99.90;;;;;;4999623;28;20061;-62
2021/03/07 09:21:11;;;;;;;3.30;0.82;;;2.10;99.90;;;;;;4992703;28;20054;-64
2021/03/07 09:23:44;;;;;;;5.28;0.52;;;2.10;99.90;;;;;;5001112;28;20061;-63
2021/03/07 09:26:16;;;;;;;3.50;0.75;;;2.10;99.90;;;;;;5000015;28;20476;-62
2021/03/07 09:28:50;;;;;;;2.85;0.68;;;2.20;99.90;;;;;;4999400;28;20058;-63
2021/03/07 09:31:36;;;;;;;3.53;1.13;;;2.20;99.90;;;;;;5001051;28;20081;-62
2021/03/07 09:34:05;;;;;;;5.50;1.45;;;2.10;99.90;;;;;;5003435;28;20085;-64
2021/03/07 09:36:38;;;;;;;4.95;0.98;;;2.10;99.90;;;;;;5001111;28;20124;-61
2021/03/07 09:39:09;;;;;;;3.25;0.88;;;2.10;99.90;;;;;;5005827;28;20068;-62
2021/03/07 09:41:40;;;;;;;3.75;0.85;;;2.10;99.90;;;;;;4996518;28;20141;-62
2021/03/07 09:44:10;;;;;;;2.92;0.55;;;2.10;99.90;;;;;;4999986;28;20074;-61
2021/03/07 09:46:38;;;;;;;2.88;0.75;;;2.10;99.90;;;;;;4998668;28;20399;-64
2021/03/07 09:49:06;;;;;;;5.90;1.42;;;2.20;99.90;;;;;;5002110;28;20038;-61
2021/03/07 09:51:36;;;;;;;7.25;0.82;;;2.30;99.90;;;;;;5002428;28;20115;-65
2021/03/07 09:54:05;;;;;;;4.63;0.88;;;2.30;99.90;;;;;;5000874;28;20421;-64
2021/03/07 09:56:34;;;;;;;1.75;0.50;;;2.20;99.90;;;;;;4997561;28;20050;-61
2021/03/07 09:59:25;;;;;;;3.83;1.20;;;2.20;99.90;;;;;;5007043;28;20054;-62
2021/03/07 10:02:01;;;;;;;2.78;0.60;;;2.20;99.90;;;;;;4988752;28;20065;-63
2021/03/07 10:04:29;;;;;;;2.95;0.70;;;2.10;99.90;;;;;;5000883;28;20528;-63
2021/03/07 10:06:57;;;;;;;1.85;0.50;;;2.10;99.90;;;;;;5004887;28;20740;-62
2021/03/07 10:09:24;;;;;;;5.63;0.55;;;2.10;99.90;;;;;;5002723;28;20116;-62
2021/03/07 10:12:02;;;;;;;3.70;0.45;;;2.10;99.90;;;;;;5003752;28;20120;-64
2021/03/07 10:14:33;;;;;;;1.70;0.80;;;2.10;99.90;;;;;;5011495;28;20145;-61
2021/03/07 10:17:00;;;;;;;5.40;1.60;;;2.10;99.90;;;;;;5001576;28;20054;-61
2021/03/07 10:19:35;;;;;;;2.05;0.40;;;2.10;99.90;;;;;;5004926;28;20620;-61
2021/03/07 10:22:04;;;;;;;2.13;0.73;;;2.10;99.90;;;;;;5003514;28;20061;-61
2021/03/07 10:24:32;;;;;;;2.08;0.45;;;2.20;99.90;;;;;;5004395;28;20153;-61
2021/03/07 10:27:07;;;;;;;2.95;1.25;;;2.20;99.90;;;;;;5005574;28;20050;-61
2021/03/07 10:29:39;;;;;;;4.25;0.55;;;2.20;99.90;;;;;;5005653;28;20069;-61
2021/03/07 10:32:13;;;;;;;4.03;1.05;;;2.20;99.90;;;;;;5001875;28;20062;-65
2021/03/07 10:34:46;;;;;;;5.63;0.82;;;2.20;99.90;;;;;;5003190;28;20123;-61
2021/03/07 10:37:38;;;;;;;4.35;0.95;;;2.20;99.90;;;;;;5005604;28;20081;-62
2021/03/07 10:40:08;;;;;;;4.70;0.63;;;2.00;99.90;;;;;;5001430;28;20139;-62
2021/03/07 10:42:37;;;;;;;6.57;0.90;;;1.90;99.90;;;;;;4997424;28;20519;-61
2021/03/07 10:45:22;;;;;;;4.38;0.45;;;1.90;99.90;;;;;;5002325;28;20169;-61
2021/03/07 10:47:59;;;;;;;3.70;0.50;;;1.80;99.90;;;;;;5003402;28;20105;-63
2021/03/07 10:50:27;;;;;;;8.60;0.82;;;1.70;99.90;;;;;;4991049;28;20058;-62
2021/03/07 10:52:55;;;;;;;8.48;0.90;;;1.60;99.90;;;;;;5005036;28;20363;-63
2021/03/07 10:55:22;;;;;;;3.25;0.88;;;1.70;99.90;;;;;;5001982;28;20061;-62
2021/03/07 10:57:49;;;;;;;5.30;1.13;;;1.70;99.90;;;;;;5005614;28;20112;-62
2021/03/07 11:00:16;;;;;;;4.88;1.55;;;1.70;99.90;;;;;;5002533;28;20054;-64
2021/03/07 11:02:44;;;;;;;9.50;1.20;;;1.70;99.90;;;;;;5003841;28;20053;-61
2021/03/07 11:05:15;;;;;;;9.00;1.30;;;1.70;99.90;;;;;;5004428;28;20151;-61
2021/03/07 11:07:42;;;;;;;9.07;1.13;;;1.70;99.90;;;;;;5001751;28;20103;-63
2021/03/07 11:10:12;;;;;;;2.72;0.60;;;1.70;99.90;;;;;;4999230;28;20123;-62
2021/03/07 11:12:39;;;;;;;17.40;1.95;;;1.60;99.90;;;;;;5005306;28;20506;-61
2021/03/07 11:15:12;;;;;;;14.48;1.60;;;1.50;99.90;;;;;;4998145;28;20046;-61
2021/03/07 11:17:39;;;;;;;6.00;0.80;;;1.50;99.90;;;;;;5000475;28;20065;-62
2021/03/07 11:20:09;;;;;;;6.47;1.05;;;1.50;99.90;;;;;;5002955;28;20051;-61
2021/03/07 11:22:35;;;;;;;3.67;0.80;;;1.50;99.90;;;;;;5002647;28;20042;-62
2021/03/07 11:25:03;;;;;;;5.50;1.40;;;1.50;99.90;;;;;;5004212;28;20057;-65
2021/03/07 11:27:30;;;;;;;11.32;2.78;;;1.60;99.90;;;;;;5001989;28;20075;-61
2021/03/07 11:29:56;;;;;;;3.70;0.22;;;1.40;99.90;;;;;;4998109;28;20066;-62
2021/03/07 11:32:23;;;;;;;1.85;0.52;;;1.40;99.90;;;;;;5002566;28;20918;-61
2021/03/07 11:34:50;;;;;;;5.03;1.02;;;1.40;99.90;;;;;;5007050;28;20049;-61
2021/03/07 11:37:17;;;;;;;5.13;1.17;;;1.30;99.90;;;;;;5001201;28;20119;-61
2021/03/07 11:39:43;;;;;;;3.28;1.15;;;1.20;99.90;;;;;;5002737;28;20119;-62
2021/03/07 11:42:10;;;;;;;5.07;0.70;;;1.20;99.90;;;;;;5000803;28;20437;-62
2021/03/07 11:44:36;;;;;;;3.15;0.70;;;1.30;99.90;;;;;;5003453;28;20050;-61
2021/03/07 11:47:03;;;;;;;5.68;1.02;;;1.30;99.90;;;;;;5002394;28;20115;-62
2021/03/07 11:49:42;;;;;;;2.75;0.32;;;1.10;99.90;;;;;;4999687;28;20500;-66
2021/03/07 11:52:09;;;;;;;5.63;0.45;;;1.10;99.90;;;;;;5002243;28;20061;-63
2021/03/07 11:54:37;;;;;;;10.35;0.55;;;1.20;99.90;;;;;;5004006;28;20441;-62
2021/03/07 11:57:04;;;;;;;1.75;0.75;;;1.20;99.90;;;;;;5002132;28;20068;-64
2021/03/07 11:59:31;;;;;;;5.10;0.52;;;1.30;99.90;;;;;;5003241;28;20054;-63
2021/03/07 12:01:58;;;;;;;3.03;0.55;;;1.30;99.90;;;;;;4996102;28;20061;-61
2021/03/07 12:04:25;;;;;;;1.30;1.05;;;1.30;99.90;;;;;;5003373;28;20041;-64
2021/03/07 12:06:51;;;;;;;1.48;0.30;;;1.20;99.90;;;;;;5000993;28;20062;-61
2021/03/07 12:09:18;;;;;;;3.67;0.95;;;1.20;99.90;;;;;;5002843;28;20795;-64
2021/03/07 12:11:44;;;;;;;3.65;0.60;;;1.20;99.90;;;;;;5001691;28;20143;-63
2021/03/07 12:14:11;;;;;;;1.27;0.80;;;1.20;99.90;;;;;;4999786;28;20116;-62
2021/03/07 12:16:37;;;;;;;3.13;0.90;;;1.20;99.90;;;;;;5002044;28;20120;-62
2021/03/07 12:19:04;;;;;;;5.18;1.00;;;1.20;99.90;;;;;;5001285;28;20050;-62
2021/03/07 12:21:30;;;;;;;4.57;0.28;;;1.10;99.90;;;;;;5002429;28;20596;-65
2021/03/07 12:23:57;;;;;;;6.00;1.08;;;1.00;99.90;;;;;;5000296;28;21888;-62
2021/03/07 12:26:24;;;;;;;2.47;0.40;;;1.10;99.90;;;;;;5000705;28;20065;-66
2021/03/07 12:28:51;;;;;;;2.45;0.55;;;1.00;99.90;;;;;;5001992;28;20073;-62
2021/03/07 12:31:17;;;;;;;2.60;0.70;;;1.10;99.90;;;;;;5000918;28;20119;-61
2021/03/07 12:33:44;;;;;;;0.32;0.32;;;1.10;99.90;;;;;;4999515;28;20149;-61
2021/03/07 12:36:13;;;;;;;4.53;0.65;;;1.20;99.90;;;;;;5000844;28;20085;-63
2021/03/07 12:38:39;;;;;;;3.97;0.80;;;1.20;99.90;;;;;;5003879;28;20046;-61
2021/03/07 12:41:06;;;;;;;3.50;0.35;;;1.20;99.90;;;;;;4998051;28;20081;-63
2021/03/07 12:43:32;;;;;;;3.38;0.25;;;1.20;99.90;;;;;;4999408;28;20380;-61
2021/03/07 12:45:59;;;;;;;4.05;0.95;;;1.20;99.90;;;;;;5001227;28;20061;-63
2021/03/07 12:48:25;;;;;;;8.00;0.60;;;1.20;99.90;;;;;;5001131;28;20452;-62
2021/03/07 12:51:00;;;;;;;6.70;0.70;;;1.20;99.90;;;;;;5001233;28;20172;-64
2021/03/07 12:53:27;;;;;;;2.35;0.35;;;1.30;99.90;;;;;;5003225;28;20045;-61
2021/03/07 12:55:53;;;;;;;9.77;0.88;;;1.30;99.90;;;;;;4997865;28;20066;-63
2021/03/07 12:58:20;;;;;;;6.65;0.88;;;1.30;99.90;;;;;;5003102;28;20057;-63
2021/03/07 13:00:46;;;;;;;7.93;0.70;;;1.30;99.90;;;;;;5000545;28;20193;-63
2021/03/07 13:03:13;;;;;;;1.38;0.77;;;1.20;99.90;;;;;;5001407;28;20046;-63
2021/03/07 13:05:40;;;;;;;6.75;1.02;;;1.30;99.90;;;;;;4999325;28;20062;-62
2021/03/07 13:08:06;;;;;;;1.23;0.50;;;1.20;99.90;;;;;;5002921;28;20139;-62
2021/03/07 13:10:33;;;;;;;3.50;0.80;;;1.20;99.90;;;;;;4997754;28;20801;-61